EWG72D LOWS-EDDH
Flight info
| Callsign | EWG72D |
|---|---|
| Flight time | 1h 2m |
| Altitude | 30000 |
| Route | INROM2A/33 INROM DCT SIMBA Y700 NENUM DCT RUDNO M736 AKOSI DCT ALOSO DCT ABGUS DCT DIRBO T902 RARUP RARUP3P |
| Aircraft | A320/M-SDE3FGHIRWY/LB1 |
Departure
| Time | 2026-04-22 20:00 |
|---|---|
| Airport | Salzburg Airport (LOWS) |
Arrival
| Time | 2026-04-22 21:02 |
|---|---|
| Airport | Hamburg Helmut Schmidt Airport (EDDH) |
| Time | Latitude | Longitude | Altitude | Speed | Heading |
|---|---|---|---|---|---|
| 2026-04-22 19:33 | 47.79203 | 12.99881 | 1422 ft | 0 kts | 283° |
| 2026-04-22 19:52 | 47.79213 | 12.99877 | 1422 ft | 3 kts | 1° |
| 2026-04-22 19:52 | 47.79214 | 12.99922 | 1422 ft | 8 kts | 103° |
| 2026-04-22 19:52 | 47.79172 | 13.00013 | 1422 ft | 14 kts | 146° |
| 2026-04-22 19:52 | 47.79118 | 13.00050 | 1422 ft | 3 kts | 155° |
| 2026-04-22 19:53 | 47.79103 | 13.00060 | 1422 ft | 2 kts | 155° |
| 2026-04-22 19:53 | 47.79091 | 13.00068 | 1422 ft | 2 kts | 155° |
| 2026-04-22 19:53 | 47.79064 | 13.00086 | 1422 ft | 7 kts | 155° |
| 2026-04-22 19:53 | 47.79002 | 13.00125 | 1422 ft | 12 kts | 157° |
| 2026-04-22 19:54 | 47.78958 | 13.00248 | 1422 ft | 17 kts | 97° |
| 2026-04-22 19:54 | 47.78941 | 13.00359 | 1420 ft | 12 kts | 123° |
| 2026-04-22 19:54 | 47.78854 | 13.00430 | 1420 ft | 17 kts | 157° |
| 2026-04-22 19:54 | 47.78743 | 13.00500 | 1423 ft | 18 kts | 157° |
| 2026-04-22 19:55 | 47.78615 | 13.00581 | 1422 ft | 22 kts | 157° |
| 2026-04-22 19:55 | 47.78461 | 13.00677 | 1421 ft | 27 kts | 157° |
| 2026-04-22 19:55 | 47.78279 | 13.00791 | 1421 ft | 21 kts | 157° |
| 2026-04-22 19:55 | 47.78188 | 13.00915 | 1419 ft | 19 kts | 110° |
| 2026-04-22 19:56 | 47.78243 | 13.01067 | 1421 ft | 17 kts | 358° |
| 2026-04-22 19:56 | 47.78354 | 13.01015 | 1418 ft | 9 kts | 337° |
| 2026-04-22 19:56 | 47.78356 | 13.01014 | 1417 ft | 0 kts | 337° |
| 2026-04-22 20:00 | 47.82469 | 12.98620 | 2505 ft | 200 kts | 343° |
| 2026-04-22 20:00 | 47.83915 | 12.98718 | 3056 ft | 220 kts | 25° |
| 2026-04-22 20:01 | 47.85191 | 13.00036 | 3889 ft | 228 kts | 40° |
| 2026-04-22 20:01 | 47.86360 | 13.01672 | 4735 ft | 231 kts | 43° |
| 2026-04-22 20:01 | 47.87517 | 13.03314 | 5519 ft | 236 kts | 41° |
| 2026-04-22 20:01 | 47.88784 | 13.05008 | 6114 ft | 250 kts | 40° |
| 2026-04-22 20:02 | 47.90150 | 13.06714 | 6757 ft | 263 kts | 38° |
| 2026-04-22 20:02 | 47.91616 | 13.08448 | 7360 ft | 275 kts | 37° |
| 2026-04-22 20:02 | 47.93169 | 13.10213 | 7973 ft | 287 kts | 37° |
| 2026-04-22 20:02 | 47.94813 | 13.12033 | 8608 ft | 297 kts | 36° |
| 2026-04-22 20:03 | 47.96488 | 13.13856 | 9250 ft | 299 kts | 36° |
| 2026-04-22 20:03 | 47.98319 | 13.15317 | 9891 ft | 302 kts | 18° |
| 2026-04-22 20:03 | 48.00386 | 13.15688 | 10504 ft | 307 kts | 357° |
| 2026-04-22 20:03 | 48.02460 | 13.14825 | 11115 ft | 314 kts | 340° |
| 2026-04-22 20:04 | 48.04485 | 13.13533 | 11713 ft | 316 kts | 340° |
| 2026-04-22 20:04 | 48.06517 | 13.12220 | 12336 ft | 319 kts | 340° |
| 2026-04-22 20:04 | 48.08543 | 13.10909 | 12645 ft | 322 kts | 340° |
| 2026-04-22 20:04 | 48.10610 | 13.09573 | 12702 ft | 321 kts | 340° |
| 2026-04-22 20:05 | 48.12664 | 13.08247 | 12711 ft | 321 kts | 340° |
| 2026-04-22 20:05 | 48.14713 | 13.06924 | 12701 ft | 321 kts | 340° |
| 2026-04-22 20:05 | 48.16769 | 13.05596 | 12704 ft | 321 kts | 340° |
| 2026-04-22 20:05 | 48.18818 | 13.04275 | 12707 ft | 321 kts | 340° |
| 2026-04-22 20:06 | 48.20873 | 13.02953 | 13170 ft | 325 kts | 340° |
| 2026-04-22 20:06 | 48.23003 | 13.01782 | 13651 ft | 328 kts | 348° |
| 2026-04-22 20:06 | 48.25262 | 13.01075 | 14144 ft | 336 kts | 355° |
| 2026-04-22 20:06 | 48.27609 | 13.00574 | 14588 ft | 345 kts | 355° |
| 2026-04-22 20:07 | 48.30011 | 13.00059 | 15038 ft | 354 kts | 355° |
| 2026-04-22 20:07 | 48.32456 | 12.99530 | 15482 ft | 361 kts | 355° |
| 2026-04-22 20:07 | 48.34965 | 12.98980 | 15934 ft | 368 kts | 355° |
| 2026-04-22 20:07 | 48.37524 | 12.98413 | 16386 ft | 374 kts | 355° |
| 2026-04-22 20:08 | 48.40125 | 12.97833 | 16864 ft | 379 kts | 354° |
| 2026-04-22 20:08 | 48.42758 | 12.97245 | 17339 ft | 384 kts | 354° |
| 2026-04-22 20:08 | 48.45419 | 12.96653 | 17831 ft | 388 kts | 354° |
| 2026-04-22 20:08 | 48.48069 | 12.96062 | 18317 ft | 391 kts | 354° |
| 2026-04-22 20:09 | 48.50798 | 12.95454 | 18778 ft | 394 kts | 355° |
| 2026-04-22 20:09 | 48.53489 | 12.94799 | 19223 ft | 398 kts | 351° |
| 2026-04-22 20:09 | 48.56161 | 12.93646 | 19665 ft | 404 kts | 345° |
| 2026-04-22 20:09 | 48.58839 | 12.92298 | 20109 ft | 406 kts | 345° |
| 2026-04-22 20:10 | 48.61550 | 12.90926 | 20568 ft | 408 kts | 345° |
| 2026-04-22 20:10 | 48.64229 | 12.89572 | 21032 ft | 410 kts | 346° |
| 2026-04-22 20:10 | 48.66945 | 12.88203 | 21502 ft | 412 kts | 346° |
| 2026-04-22 20:10 | 48.69678 | 12.86826 | 21968 ft | 413 kts | 346° |
| 2026-04-22 20:11 | 48.72416 | 12.85446 | 22476 ft | 415 kts | 346° |
| 2026-04-22 20:11 | 48.75152 | 12.84062 | 22973 ft | 415 kts | 346° |
| 2026-04-22 20:11 | 48.77908 | 12.82666 | 23467 ft | 416 kts | 346° |
| 2026-04-22 20:11 | 48.80632 | 12.81288 | 23953 ft | 416 kts | 346° |
| 2026-04-22 20:12 | 48.83387 | 12.79895 | 24370 ft | 417 kts | 346° |
| 2026-04-22 20:12 | 48.86136 | 12.78502 | 24801 ft | 417 kts | 346° |
| 2026-04-22 20:12 | 48.87961 | 12.77575 | 25094 ft | 417 kts | 347° |
| 2026-04-22 20:12 | 48.91614 | 12.75715 | 25690 ft | 417 kts | 347° |
| 2026-04-22 20:13 | 48.94372 | 12.74305 | 26147 ft | 416 kts | 347° |
| 2026-04-22 20:13 | 48.97129 | 12.72891 | 26599 ft | 415 kts | 347° |
| 2026-04-22 20:13 | 48.99844 | 12.71498 | 27056 ft | 415 kts | 347° |
| 2026-04-22 20:13 | 49.02568 | 12.70102 | 27545 ft | 414 kts | 347° |
| 2026-04-22 20:14 | 49.05307 | 12.68700 | 28017 ft | 413 kts | 348° |
| 2026-04-22 20:14 | 49.08021 | 12.67316 | 28497 ft | 412 kts | 348° |
| 2026-04-22 20:14 | 49.10747 | 12.65923 | 29018 ft | 410 kts | 348° |
| 2026-04-22 20:14 | 49.13414 | 12.64557 | 29521 ft | 409 kts | 349° |
| 2026-04-22 20:15 | 49.16103 | 12.63175 | 30038 ft | 408 kts | 349° |
| 2026-04-22 20:15 | 49.18818 | 12.61780 | 30282 ft | 414 kts | 349° |
| 2026-04-22 20:15 | 49.21570 | 12.60373 | 30316 ft | 423 kts | 349° |
| 2026-04-22 20:16 | 49.27286 | 12.57441 | 30315 ft | 443 kts | 348° |
| 2026-04-22 20:16 | 49.33184 | 12.53908 | 30305 ft | 468 kts | 337° |
| 2026-04-22 20:16 | 49.35973 | 12.51226 | 30322 ft | 482 kts | 328° |
| 2026-04-22 20:17 | 49.38638 | 12.48008 | 30318 ft | 492 kts | 326° |
| 2026-04-22 20:17 | 49.44084 | 12.41368 | 30315 ft | 504 kts | 326° |
| 2026-04-22 20:18 | 49.49582 | 12.34676 | 30325 ft | 508 kts | 326° |
| 2026-04-22 20:18 | 49.55124 | 12.27893 | 30304 ft | 508 kts | 326° |
| 2026-04-22 20:19 | 49.60638 | 12.21114 | 30308 ft | 508 kts | 326° |
| 2026-04-22 20:19 | 49.66128 | 12.14345 | 30315 ft | 508 kts | 326° |
| 2026-04-22 20:20 | 49.72097 | 12.08691 | 30305 ft | 496 kts | 342° |
| 2026-04-22 20:20 | 49.78591 | 12.05677 | 30306 ft | 488 kts | 352° |
| 2026-04-22 20:21 | 49.85191 | 12.03185 | 30299 ft | 488 kts | 352° |
| 2026-04-22 20:21 | 49.90683 | 12.01094 | 30306 ft | 487 kts | 352° |
| 2026-04-22 20:22 | 49.98358 | 11.98172 | 30320 ft | 487 kts | 352° |
| 2026-04-22 20:22 | 50.03830 | 11.96080 | 30308 ft | 487 kts | 351° |
| 2026-04-22 20:23 | 50.10436 | 11.93549 | 30307 ft | 486 kts | 351° |
| 2026-04-22 20:23 | 50.17012 | 11.91038 | 30313 ft | 486 kts | 351° |
| 2026-04-22 20:24 | 50.23588 | 11.88511 | 30316 ft | 487 kts | 351° |
| 2026-04-22 20:24 | 50.30141 | 11.85978 | 30310 ft | 486 kts | 351° |
| 2026-04-22 20:25 | 50.36692 | 11.83445 | 30324 ft | 486 kts | 351° |
| 2026-04-22 20:25 | 50.43230 | 11.80911 | 30327 ft | 485 kts | 351° |
| 2026-04-22 20:26 | 50.49783 | 11.78371 | 30331 ft | 485 kts | 351° |
| 2026-04-22 20:26 | 50.56364 | 11.75810 | 30331 ft | 485 kts | 351° |
| 2026-04-22 20:27 | 50.62902 | 11.73255 | 30331 ft | 485 kts | 351° |
| 2026-04-22 20:27 | 50.69457 | 11.70686 | 30317 ft | 485 kts | 351° |
| 2026-04-22 20:28 | 50.75887 | 11.67375 | 30302 ft | 490 kts | 346° |
| 2026-04-22 20:28 | 50.82346 | 11.63831 | 30320 ft | 490 kts | 346° |
| 2026-04-22 20:29 | 50.88791 | 11.60300 | 30333 ft | 489 kts | 346° |
| 2026-04-22 20:29 | 50.95217 | 11.56782 | 30336 ft | 489 kts | 346° |
| 2026-04-22 20:30 | 51.01640 | 11.53235 | 30320 ft | 489 kts | 345° |
| 2026-04-22 20:30 | 51.08034 | 11.49694 | 30342 ft | 489 kts | 345° |
| 2026-04-22 20:31 | 51.14430 | 11.46154 | 30345 ft | 488 kts | 345° |
| 2026-04-22 20:31 | 51.20876 | 11.42578 | 30337 ft | 488 kts | 345° |
| 2026-04-22 20:32 | 51.27259 | 11.39015 | 30317 ft | 489 kts | 345° |
| 2026-04-22 20:32 | 51.33706 | 11.35396 | 30324 ft | 489 kts | 345° |
| 2026-04-22 20:33 | 51.40102 | 11.31819 | 30335 ft | 489 kts | 345° |
| 2026-04-22 20:33 | 51.46510 | 11.28232 | 30331 ft | 489 kts | 345° |
| 2026-04-22 20:34 | 51.52938 | 11.24611 | 30315 ft | 489 kts | 345° |
| 2026-04-22 20:34 | 51.59363 | 11.20975 | 30327 ft | 489 kts | 345° |
| 2026-04-22 20:35 | 51.65787 | 11.17313 | 30321 ft | 489 kts | 345° |
| 2026-04-22 20:35 | 51.72195 | 11.13646 | 30324 ft | 490 kts | 345° |
| 2026-04-22 20:36 | 51.78639 | 11.09962 | 30310 ft | 491 kts | 345° |
| 2026-04-22 20:36 | 51.85169 | 11.07110 | 30313 ft | 486 kts | 353° |
| 2026-04-22 20:37 | 51.91791 | 11.04849 | 30322 ft | 487 kts | 353° |
| 2026-04-22 20:37 | 51.98441 | 11.02569 | 30318 ft | 487 kts | 353° |
| 2026-04-22 20:37 | 52.01716 | 11.01443 | 30094 ft | 486 kts | 353° |
| 2026-04-22 20:38 | 52.05033 | 11.00305 | 29627 ft | 487 kts | 353° |
| 2026-04-22 20:38 | 52.08354 | 10.99170 | 29194 ft | 488 kts | 353° |
| 2026-04-22 20:38 | 52.11687 | 10.98026 | 28774 ft | 488 kts | 352° |
| 2026-04-22 20:38 | 52.15002 | 10.96880 | 28364 ft | 485 kts | 352° |
| 2026-04-22 20:39 | 52.18290 | 10.95740 | 27949 ft | 482 kts | 352° |
| 2026-04-22 20:39 | 52.21518 | 10.94618 | 27556 ft | 472 kts | 352° |
| 2026-04-22 20:39 | 52.24694 | 10.93510 | 27129 ft | 459 kts | 352° |
| 2026-04-22 20:39 | 52.27779 | 10.92432 | 26745 ft | 449 kts | 352° |
| 2026-04-22 20:40 | 52.30816 | 10.91375 | 26347 ft | 444 kts | 352° |
| 2026-04-22 20:40 | 52.33829 | 10.90331 | 25942 ft | 440 kts | 351° |
| 2026-04-22 20:40 | 52.36813 | 10.89291 | 25541 ft | 436 kts | 351° |
| 2026-04-22 20:40 | 52.39741 | 10.88267 | 25156 ft | 433 kts | 351° |
| 2026-04-22 20:41 | 52.42664 | 10.87243 | 24755 ft | 429 kts | 351° |
| 2026-04-22 20:41 | 52.45603 | 10.86216 | 24386 ft | 426 kts | 350° |
| 2026-04-22 20:41 | 52.48465 | 10.85215 | 24010 ft | 423 kts | 350° |
| 2026-04-22 20:41 | 52.51325 | 10.84212 | 23578 ft | 415 kts | 349° |
| 2026-04-22 20:42 | 52.54118 | 10.83227 | 23141 ft | 407 kts | 350° |
| 2026-04-22 20:42 | 52.56853 | 10.82261 | 22701 ft | 399 kts | 350° |
| 2026-04-22 20:42 | 52.59533 | 10.81318 | 22273 ft | 392 kts | 350° |
| 2026-04-22 20:42 | 52.62209 | 10.80373 | 21845 ft | 386 kts | 350° |
| 2026-04-22 20:43 | 52.64789 | 10.79462 | 21423 ft | 380 kts | 350° |
| 2026-04-22 20:43 | 52.67358 | 10.78555 | 21016 ft | 375 kts | 350° |
| 2026-04-22 20:43 | 52.69912 | 10.77651 | 20610 ft | 372 kts | 350° |
| 2026-04-22 20:43 | 52.72427 | 10.76757 | 20209 ft | 368 kts | 350° |
| 2026-04-22 20:44 | 52.74910 | 10.75873 | 19827 ft | 366 kts | 350° |
| 2026-04-22 20:44 | 52.77409 | 10.74986 | 19420 ft | 363 kts | 349° |
| 2026-04-22 20:44 | 52.79840 | 10.74121 | 19040 ft | 360 kts | 349° |
| 2026-04-22 20:44 | 52.82285 | 10.73250 | 18659 ft | 357 kts | 349° |
| 2026-04-22 20:45 | 52.84723 | 10.72381 | 18225 ft | 355 kts | 349° |
| 2026-04-22 20:45 | 52.87094 | 10.71537 | 17811 ft | 352 kts | 349° |
| 2026-04-22 20:45 | 52.89483 | 10.70683 | 17380 ft | 350 kts | 349° |
| 2026-04-22 20:45 | 52.91867 | 10.69829 | 16957 ft | 348 kts | 349° |
| 2026-04-22 20:46 | 52.96262 | 10.68252 | 16179 ft | 341 kts | 349° |
| 2026-04-22 20:46 | 52.98542 | 10.67433 | 15768 ft | 338 kts | 350° |
| 2026-04-22 20:46 | 53.00847 | 10.66609 | 15387 ft | 335 kts | 350° |
| 2026-04-22 20:47 | 53.03106 | 10.65800 | 15063 ft | 330 kts | 350° |
| 2026-04-22 20:47 | 53.05336 | 10.64994 | 14684 ft | 328 kts | 350° |
| 2026-04-22 20:47 | 53.07554 | 10.64191 | 14298 ft | 326 kts | 350° |
| 2026-04-22 20:47 | 53.09779 | 10.63387 | 13897 ft | 324 kts | 350° |
| 2026-04-22 20:48 | 53.11973 | 10.62595 | 13469 ft | 322 kts | 350° |
| 2026-04-22 20:48 | 53.14140 | 10.61811 | 13051 ft | 320 kts | 349° |
| 2026-04-22 20:48 | 53.16316 | 10.61019 | 12630 ft | 318 kts | 349° |
| 2026-04-22 20:48 | 53.18472 | 10.60235 | 12212 ft | 315 kts | 349° |
| 2026-04-22 20:49 | 53.20608 | 10.59464 | 11811 ft | 313 kts | 349° |
| 2026-04-22 20:49 | 53.22744 | 10.58695 | 11404 ft | 311 kts | 349° |
| 2026-04-22 20:49 | 53.24845 | 10.57937 | 11012 ft | 308 kts | 349° |
| 2026-04-22 20:49 | 53.26920 | 10.57200 | 10627 ft | 306 kts | 348° |
| 2026-04-22 20:50 | 53.28972 | 10.56253 | 10301 ft | 302 kts | 345° |
| 2026-04-22 20:50 | 53.30969 | 10.55237 | 9893 ft | 299 kts | 345° |
| 2026-04-22 20:50 | 53.32961 | 10.54220 | 9467 ft | 297 kts | 344° |
| 2026-04-22 20:50 | 53.34931 | 10.53219 | 9049 ft | 295 kts | 344° |
| 2026-04-22 20:51 | 53.36872 | 10.52240 | 8641 ft | 292 kts | 344° |
| 2026-04-22 20:51 | 53.38825 | 10.51261 | 8230 ft | 290 kts | 344° |
| 2026-04-22 20:51 | 53.40536 | 10.50408 | 7875 ft | 287 kts | 344° |
| 2026-04-22 20:51 | 53.42094 | 10.49635 | 7541 ft | 285 kts | 344° |
| 2026-04-22 20:52 | 53.43982 | 10.48705 | 7162 ft | 283 kts | 344° |
| 2026-04-22 20:52 | 53.45864 | 10.47788 | 6790 ft | 279 kts | 344° |
| 2026-04-22 20:52 | 53.47711 | 10.46822 | 6406 ft | 276 kts | 341° |
| 2026-04-22 20:52 | 53.49480 | 10.45698 | 6007 ft | 273 kts | 340° |
| 2026-04-22 20:53 | 53.51250 | 10.44549 | 5589 ft | 271 kts | 339° |
| 2026-04-22 20:53 | 53.53004 | 10.43416 | 5187 ft | 268 kts | 339° |
| 2026-04-22 20:53 | 53.54721 | 10.42313 | 4782 ft | 265 kts | 339° |
| 2026-04-22 20:53 | 53.56445 | 10.41222 | 4425 ft | 261 kts | 339° |
| 2026-04-22 20:54 | 53.58123 | 10.40173 | 4175 ft | 252 kts | 340° |
| 2026-04-22 20:54 | 53.59732 | 10.39163 | 3968 ft | 235 kts | 339° |
| 2026-04-22 20:54 | 53.61152 | 10.38274 | 3925 ft | 207 kts | 339° |
| 2026-04-22 20:54 | 53.62457 | 10.37458 | 3906 ft | 197 kts | 339° |
| 2026-04-22 20:55 | 53.63743 | 10.36652 | 3881 ft | 196 kts | 339° |
| 2026-04-22 20:55 | 53.65019 | 10.35854 | 3857 ft | 190 kts | 339° |
| 2026-04-22 20:55 | 53.66155 | 10.34816 | 3789 ft | 186 kts | 327° |
| 2026-04-22 20:55 | 53.67178 | 10.33592 | 3570 ft | 174 kts | 324° |
| 2026-04-22 20:56 | 53.68126 | 10.32413 | 3383 ft | 163 kts | 324° |
| 2026-04-22 20:56 | 53.68988 | 10.31332 | 3274 ft | 144 kts | 324° |
| 2026-04-22 20:56 | 53.69766 | 10.30355 | 2938 ft | 138 kts | 324° |
| 2026-04-22 20:56 | 53.70542 | 10.29391 | 2542 ft | 137 kts | 324° |
| 2026-04-22 20:57 | 53.71312 | 10.28449 | 2148 ft | 136 kts | 324° |
| 2026-04-22 20:57 | 53.72072 | 10.27532 | 2018 ft | 134 kts | 324° |
| 2026-04-22 20:57 | 53.72782 | 10.26520 | 2005 ft | 137 kts | 304° |
| 2026-04-22 20:57 | 53.72947 | 10.24934 | 2008 ft | 144 kts | 271° |
| 2026-04-22 20:58 | 53.72802 | 10.23245 | 1996 ft | 145 kts | 265° |
| 2026-04-22 20:58 | 53.72614 | 10.21580 | 2001 ft | 145 kts | 264° |
| 2026-04-22 20:58 | 53.72419 | 10.19897 | 2005 ft | 144 kts | 265° |
| 2026-04-22 20:58 | 53.72153 | 10.18264 | 2003 ft | 150 kts | 245° |
| 2026-04-22 20:59 | 53.71561 | 10.16767 | 1935 ft | 153 kts | 239° |
| 2026-04-22 20:59 | 53.70926 | 10.15373 | 1971 ft | 151 kts | 239° |
| 2026-04-22 20:59 | 53.70314 | 10.13933 | 1998 ft | 151 kts | 242° |
| 2026-04-22 20:59 | 53.69694 | 10.12492 | 1921 ft | 152 kts | 239° |
| 2026-04-22 21:00 | 53.69038 | 10.11077 | 1760 ft | 152 kts | 238° |
| 2026-04-22 21:00 | 53.68388 | 10.09723 | 1565 ft | 151 kts | 237° |
| 2026-04-22 21:00 | 53.67723 | 10.08354 | 1373 ft | 150 kts | 237° |
| 2026-04-22 21:00 | 53.67060 | 10.07001 | 1164 ft | 146 kts | 237° |
| 2026-04-22 21:01 | 53.66433 | 10.05727 | 972 ft | 138 kts | 237° |
| 2026-04-22 21:01 | 53.65823 | 10.04487 | 785 ft | 135 kts | 235° |
| 2026-04-22 21:01 | 53.65231 | 10.03304 | 582 ft | 133 kts | 234° |
| 2026-04-22 21:01 | 53.64641 | 10.02107 | 366 ft | 132 kts | 232° |
| 2026-04-22 21:02 | 53.64069 | 10.00913 | 238 ft | 131 kts | 233° |
| 2026-04-22 21:02 | 53.63492 | 9.99754 | 57 ft | 124 kts | 235° |
| 2026-04-22 21:02 | 53.63033 | 9.98817 | 49 ft | 80 kts | 230° |
| 2026-04-22 21:02 | 53.62788 | 9.98310 | 50 ft | 31 kts | 229° |
| 2026-04-22 21:03 | 53.62740 | 9.98222 | 50 ft | 3 kts | 229° |
| 2026-04-22 21:03 | 53.62686 | 9.98116 | 50 ft | 17 kts | 231° |
| 2026-04-22 21:03 | 53.62607 | 9.97949 | 48 ft | 19 kts | 232° |
| 2026-04-22 21:03 | 53.62527 | 9.97810 | 47 ft | 16 kts | 208° |
| 2026-04-22 21:04 | 53.62435 | 9.97859 | 49 ft | 13 kts | 114° |
| 2026-04-22 21:04 | 53.62430 | 9.97909 | 50 ft | 0 kts | 89° |
| 2026-04-22 21:05 | 53.62432 | 9.97954 | 50 ft | 10 kts | 83° |
| 2026-04-22 21:05 | 53.62466 | 9.98091 | 50 ft | 13 kts | 56° |
| 2026-04-22 21:05 | 53.62520 | 9.98206 | 50 ft | 12 kts | 50° |
| 2026-04-22 21:06 | 53.62569 | 9.98306 | 50 ft | 10 kts | 51° |
| 2026-04-22 21:06 | 53.62611 | 9.98394 | 50 ft | 9 kts | 51° |
| 2026-04-22 21:06 | 53.62654 | 9.98479 | 50 ft | 13 kts | 49° |
| 2026-04-22 21:06 | 53.62730 | 9.98634 | 50 ft | 22 kts | 50° |
| 2026-04-22 21:07 | 53.62847 | 9.98871 | 50 ft | 28 kts | 50° |
| 2026-04-22 21:07 | 53.62914 | 9.99006 | 50 ft | 14 kts | 50° |
| 2026-04-22 21:07 | 53.62971 | 9.99121 | 50 ft | 12 kts | 50° |
| 2026-04-22 21:07 | 53.63021 | 9.99223 | 50 ft | 11 kts | 52° |
| 2026-04-22 21:08 | 53.63064 | 9.99319 | 50 ft | 10 kts | 54° |
| 2026-04-22 21:08 | 53.63105 | 9.99417 | 50 ft | 12 kts | 55° |
| 2026-04-22 21:08 | 53.63167 | 9.99557 | 49 ft | 16 kts | 50° |
| 2026-04-22 21:08 | 53.63250 | 9.99716 | 50 ft | 20 kts | 47° |
| 2026-04-22 21:09 | 53.63319 | 9.99846 | 50 ft | 12 kts | 49° |
| 2026-04-22 21:09 | 53.63370 | 9.99947 | 49 ft | 10 kts | 50° |
| 2026-04-22 21:09 | 53.63416 | 10.00041 | 51 ft | 12 kts | 52° |
| 2026-04-22 21:09 | 53.63415 | 10.00176 | 51 ft | 11 kts | 122° |
| 2026-04-22 21:10 | 53.63352 | 10.00230 | 48 ft | 10 kts | 174° |
| 2026-04-22 21:10 | 53.63314 | 10.00235 | 51 ft | 0 kts | 174° |
| 2026-04-22 21:10 | 53.63295 | 10.00257 | 49 ft | 5 kts | 127° |
| 2026-04-22 21:10 | 53.63292 | 10.00300 | 51 ft | 3 kts | 83° |
| 2026-04-22 21:11 | 53.63293 | 10.00330 | 51 ft | 2 kts | 86° |
| 2026-04-22 21:11 | 53.63294 | 10.00343 | 51 ft | 0 kts | 86° |